createdAt,value
2023-04-27T00:00:36.516Z,15.90
2023-04-27T00:03:07.669Z,15.90
2023-04-27T00:05:39.729Z,15.70
2023-04-27T00:08:10.795Z,16.10
2023-04-27T00:10:41.713Z,16.10
2023-04-27T00:13:12.635Z,16.20
2023-04-27T00:15:45.360Z,16.30
2023-04-27T00:18:16.281Z,16.20
2023-04-27T00:20:47.196Z,16.00
2023-04-27T00:23:18.140Z,16.10
2023-04-27T00:25:49.045Z,16.20
2023-04-27T00:28:20.021Z,16.00
2023-04-27T00:30:54.344Z,16.10
2023-04-27T00:33:25.306Z,15.90
2023-04-27T00:36:01.372Z,15.80
2023-04-27T00:38:32.262Z,15.90
2023-04-27T00:41:04.900Z,16.20
2023-04-27T00:43:43.886Z,16.10
2023-04-27T00:46:15.700Z,16.20
2023-04-27T00:48:46.998Z,16.00
2023-04-27T00:51:18.010Z,15.80
2023-04-27T00:53:51.116Z,15.90
2023-04-27T00:56:22.830Z,16.00
2023-04-27T00:58:54.012Z,15.90
2023-04-27T01:01:25.253Z,15.70
2023-04-27T01:03:56.960Z,15.40
2023-04-27T01:06:29.822Z,15.40
2023-04-27T01:09:00.976Z,15.50
2023-04-27T01:11:33.524Z,15.50
2023-04-27T01:14:06.975Z,15.50
2023-04-27T01:16:38.124Z,15.40
2023-04-27T01:19:09.453Z,15.60
2023-04-27T01:21:40.897Z,15.50
2023-04-27T01:24:11.844Z,15.40
2023-04-27T01:26:42.750Z,15.30
2023-04-27T01:29:13.837Z,15.30
2023-04-27T01:31:45.228Z,15.50
2023-04-27T01:34:16.220Z,15.60
2023-04-27T01:36:47.153Z,15.30
2023-04-27T01:39:18.083Z,15.30
2023-04-27T01:41:49.052Z,15.30
2023-04-27T01:44:21.147Z,15.20
2023-04-27T01:46:52.082Z,15.10
2023-04-27T01:49:23.054Z,15.10
2023-04-27T01:51:53.976Z,15.10
2023-04-27T01:54:26.796Z,15.20
2023-04-27T01:56:59.039Z,15.40
2023-04-27T01:59:29.900Z,15.30
2023-04-27T02:02:00.857Z,15.20
2023-04-27T02:04:31.844Z,15.10
2023-04-27T02:07:03.524Z,15.10
2023-04-27T02:09:34.400Z,15.00
2023-04-27T02:12:06.181Z,15.10
2023-04-27T02:14:37.112Z,14.60
2023-04-27T02:17:08.080Z,14.30
2023-04-27T02:19:39.022Z,14.60
2023-04-27T02:22:09.913Z,14.70
2023-04-27T02:24:41.115Z,14.80
2023-04-27T02:27:12.090Z,14.80
2023-04-27T02:29:43.411Z,14.70
2023-04-27T02:32:14.841Z,14.80
2023-04-27T02:34:46.823Z,15.10
2023-04-27T02:37:17.709Z,14.90
2023-04-27T02:39:48.678Z,14.90
2023-04-27T02:42:19.765Z,14.70
2023-04-27T02:44:50.674Z,14.60
2023-04-27T02:47:21.582Z,14.70
2023-04-27T02:49:53.361Z,14.60
2023-04-27T02:52:24.257Z,14.70
2023-04-27T02:54:55.142Z,14.70
2023-04-27T02:57:26.276Z,14.60
2023-04-27T02:59:57.188Z,14.70
2023-04-27T03:02:28.164Z,14.80
2023-04-27T03:04:59.363Z,14.80
2023-04-27T03:07:31.705Z,14.70
2023-04-27T03:10:02.612Z,14.60
2023-04-27T03:12:33.532Z,14.30
2023-04-27T03:15:04.947Z,14.50
2023-04-27T03:17:36.025Z,14.70
2023-04-27T03:20:09.926Z,14.70
2023-04-27T03:22:40.926Z,14.60
2023-04-27T03:25:12.054Z,14.60
2023-04-27T03:27:43.578Z,14.80
2023-04-27T03:30:15.024Z,14.90
2023-04-27T03:32:47.762Z,14.80
2023-04-27T03:35:18.977Z,14.90
2023-04-27T03:37:49.872Z,14.60
2023-04-27T03:40:20.968Z,14.70
2023-04-27T03:42:51.873Z,14.70
2023-04-27T03:45:22.765Z,14.60
2023-04-27T03:47:53.698Z,14.80
2023-04-27T03:50:24.692Z,14.70
2023-04-27T03:52:56.086Z,15.00
2023-04-27T03:55:27.398Z,15.10
2023-04-27T03:57:58.550Z,15.10
2023-04-27T04:00:29.468Z,14.90
2023-04-27T04:03:01.681Z,14.90
2023-04-27T04:05:32.917Z,15.00
2023-04-27T04:08:04.752Z,15.10
2023-04-27T04:10:35.682Z,15.20
2023-04-27T04:13:06.541Z,15.10
2023-04-27T04:15:37.438Z,15.30
2023-04-27T04:18:08.430Z,15.40
2023-04-27T04:20:39.406Z,15.40
2023-04-27T04:23:10.498Z,15.40
2023-04-27T04:25:41.745Z,15.10
2023-04-27T04:28:12.662Z,15.10
2023-04-27T04:30:43.883Z,15.20
2023-04-27T04:33:14.798Z,15.30
2023-04-27T04:35:46.307Z,15.30
2023-04-27T04:38:17.296Z,15.40
2023-04-27T04:40:48.542Z,15.40
2023-04-27T04:43:19.445Z,15.40
2023-04-27T04:45:50.981Z,15.30
2023-04-27T04:48:22.303Z,15.50
2023-04-27T04:50:53.213Z,15.40
2023-04-27T04:53:24.128Z,15.50
2023-04-27T04:55:55.578Z,15.50
2023-04-27T04:58:26.527Z,15.50
2023-04-27T05:00:57.446Z,15.50
2023-04-27T05:03:28.568Z,15.60
2023-04-27T05:05:59.612Z,15.50
2023-04-27T05:08:30.564Z,15.50
2023-04-27T05:11:01.583Z,15.60
2023-04-27T05:13:32.460Z,15.70
2023-04-27T05:16:07.830Z,15.50
2023-04-27T05:18:38.766Z,15.80
2023-04-27T05:21:17.641Z,15.80
2023-04-27T05:23:49.165Z,15.90
2023-04-27T05:26:20.107Z,15.90
2023-04-27T05:28:51.465Z,16.00
2023-04-27T05:31:22.449Z,16.10
2023-04-27T05:33:53.429Z,16.00
2023-04-27T05:36:24.345Z,16.40
2023-04-27T05:38:56.002Z,16.10
2023-04-27T05:41:26.968Z,16.20
2023-04-27T05:43:57.894Z,16.10
2023-04-27T05:46:28.973Z,16.40
2023-04-27T05:49:00.584Z,16.50
2023-04-27T05:51:33.524Z,16.30
2023-04-27T05:54:04.538Z,16.40
2023-04-27T05:56:35.567Z,16.70
2023-04-27T05:59:06.424Z,16.80
2023-04-27T06:01:37.408Z,16.60
2023-04-27T06:04:08.440Z,16.60
2023-04-27T06:06:39.541Z,16.70
2023-04-27T06:09:10.448Z,16.70
2023-04-27T06:11:41.411Z,16.90
2023-04-27T06:14:12.304Z,16.70
2023-04-27T06:16:43.550Z,16.90
2023-04-27T06:19:14.679Z,16.90
2023-04-27T06:21:46.436Z,16.70
2023-04-27T06:24:17.586Z,16.60
2023-04-27T06:26:50.560Z,16.90
2023-04-27T06:29:21.665Z,17.10
2023-04-27T06:31:52.654Z,16.90
2023-04-27T06:34:23.618Z,17.10
2023-04-27T06:36:54.527Z,17.30
2023-04-27T06:39:25.492Z,17.70
2023-04-27T06:41:56.405Z,17.50
2023-04-27T06:44:27.539Z,17.80
2023-04-27T06:46:58.443Z,17.20
2023-04-27T06:49:29.331Z,17.70
2023-04-27T06:52:03.020Z,17.70
2023-04-27T06:54:33.920Z,17.60
2023-04-27T06:57:04.854Z,17.60
2023-04-27T06:59:35.793Z,17.80
2023-04-27T07:02:07.719Z,17.80
2023-04-27T07:04:38.701Z,17.60
2023-04-27T07:07:09.688Z,17.60
2023-04-27T07:09:40.644Z,17.60
2023-04-27T07:12:11.545Z,17.70
2023-04-27T07:14:43.070Z,17.80
2023-04-27T07:17:13.981Z,18.20
2023-04-27T07:19:44.917Z,18.00
2023-04-27T07:22:16.232Z,18.00
2023-04-27T07:24:47.507Z,18.10
2023-04-27T07:27:18.962Z,18.20
2023-04-27T07:29:49.934Z,18.00
2023-04-27T07:32:21.986Z,17.90
2023-04-27T07:34:55.527Z,18.10
2023-04-27T07:37:26.927Z,17.70
2023-04-27T07:39:59.561Z,18.30
2023-04-27T07:42:30.476Z,18.40
2023-04-27T07:45:01.406Z,18.60
2023-04-27T07:47:32.398Z,18.50
2023-04-27T07:50:04.650Z,18.90
2023-04-27T07:52:36.086Z,19.20
2023-04-27T07:55:08.212Z,19.20
2023-04-27T07:57:39.096Z,19.10
2023-04-27T08:00:11.538Z,18.80
2023-04-27T08:02:43.004Z,19.10
2023-04-27T08:05:15.147Z,19.30
2023-04-27T08:07:46.925Z,19.30
2023-04-27T08:10:17.983Z,18.90
2023-04-27T08:12:49.091Z,19.30
2023-04-27T08:15:21.026Z,19.20
2023-04-27T08:17:51.955Z,19.40
2023-04-27T08:20:22.952Z,19.50
2023-04-27T08:22:53.988Z,19.40
2023-04-27T08:25:24.897Z,19.30
2023-04-27T08:27:56.232Z,19.70
2023-04-27T08:30:27.251Z,19.80
2023-04-27T08:32:58.238Z,19.90
2023-04-27T08:35:29.226Z,19.70
2023-04-27T08:38:00.191Z,20.00
2023-04-27T08:40:31.266Z,20.10
2023-04-27T08:43:02.248Z,20.20
2023-04-27T08:45:33.318Z,20.30
2023-04-27T08:48:04.765Z,20.30
2023-04-27T08:50:42.506Z,20.30
2023-04-27T08:53:23.505Z,20.50
2023-04-27T08:55:56.835Z,20.50
2023-04-27T08:58:39.792Z,20.60
2023-04-27T09:01:10.959Z,20.70
2023-04-27T09:03:42.750Z,20.80
2023-04-27T09:06:15.526Z,20.90
2023-04-27T09:08:50.769Z,20.60
2023-04-27T09:11:34.807Z,20.70
2023-04-27T09:14:23.817Z,20.80
2023-04-27T09:16:57.821Z,21.30
2023-04-27T09:19:30.445Z,21.30
2023-04-27T09:22:11.124Z,21.30
2023-04-27T09:24:52.462Z,21.40
2023-04-27T09:27:23.536Z,21.60
2023-04-27T09:29:54.437Z,21.50
2023-04-27T09:32:25.424Z,21.50
2023-04-27T09:34:56.355Z,21.80
2023-04-27T09:37:27.698Z,21.80
2023-04-27T09:39:58.753Z,21.80
2023-04-27T09:42:29.833Z,21.80
2023-04-27T09:45:01.832Z,21.90
2023-04-27T09:47:34.561Z,21.90
2023-04-27T09:50:06.828Z,22.10
2023-04-27T09:52:37.768Z,21.60
2023-04-27T09:55:13.328Z,21.70
2023-04-27T09:58:27.275Z,21.90
2023-04-27T10:01:28.591Z,22.00
2023-04-27T10:04:49.818Z,21.90
2023-04-27T10:07:21.359Z,22.20
2023-04-27T10:09:52.380Z,21.90
2023-04-27T10:12:28.581Z,21.90
2023-04-27T10:15:15.405Z,22.20
2023-04-27T10:17:53.241Z,22.50
2023-04-27T10:20:33.073Z,22.40
2023-04-27T10:23:04.747Z,22.70
2023-04-27T10:25:41.941Z,23.00
2023-04-27T10:28:23.411Z,23.00
2023-04-27T10:30:54.421Z,23.00
2023-04-27T10:33:25.320Z,23.10
2023-04-27T10:35:59.076Z,23.30
2023-04-27T10:38:31.456Z,23.40
2023-04-27T10:41:05.521Z,23.60
2023-04-27T10:43:36.530Z,23.60
2023-04-27T10:46:09.582Z,23.60
2023-04-27T10:48:42.424Z,23.50
2023-04-27T10:51:17.758Z,23.60
2023-04-27T10:53:53.869Z,23.80
2023-04-27T10:56:25.105Z,24.00
2023-04-27T10:58:56.311Z,23.90
2023-04-27T11:01:29.488Z,24.10
2023-04-27T11:04:03.612Z,24.30
2023-04-27T11:06:44.009Z,24.50
2023-04-27T11:09:25.851Z,24.80
2023-04-27T11:11:56.914Z,25.50
2023-04-27T11:14:27.864Z,24.80
2023-04-27T11:16:59.265Z,25.10
2023-04-27T11:19:31.142Z,25.20
2023-04-27T11:22:07.065Z,25.10
2023-04-27T11:24:46.930Z,24.60
2023-04-27T11:27:19.110Z,25.40
2023-04-27T11:29:50.095Z,25.10
2023-04-27T11:32:25.868Z,24.80
2023-04-27T11:34:58.429Z,25.20
2023-04-27T11:37:30.618Z,26.40
2023-04-27T11:40:01.628Z,26.30
2023-04-27T11:42:32.562Z,25.80
2023-04-27T11:45:08.667Z,25.10
2023-04-27T11:47:42.450Z,24.70
2023-04-27T11:50:13.392Z,25.30
2023-04-27T11:52:49.213Z,25.20
2023-04-27T11:55:24.645Z,25.50
2023-04-27T11:57:59.317Z,25.70
2023-04-27T12:00:30.508Z,25.70
2023-04-27T12:03:03.468Z,25.50
2023-04-27T12:05:35.576Z,26.00
2023-04-27T12:08:06.831Z,25.30
2023-04-27T12:10:37.766Z,25.50
2023-04-27T12:13:08.826Z,25.90
2023-04-27T12:15:40.300Z,25.80
2023-04-27T12:18:11.523Z,26.00
2023-04-27T12:20:42.460Z,26.10
2023-04-27T12:23:13.344Z,26.30
2023-04-27T12:25:44.388Z,26.60
2023-04-27T12:28:19.095Z,26.50
2023-04-27T12:30:50.192Z,26.50
2023-04-27T12:33:21.995Z,25.90
2023-04-27T12:35:53.093Z,26.00
2023-04-27T12:38:23.974Z,26.40
2023-04-27T12:40:54.997Z,26.90
2023-04-27T12:43:26.391Z,27.50
2023-04-27T12:45:57.563Z,27.50
2023-04-27T12:48:28.606Z,27.60
2023-04-27T12:50:59.612Z,27.20
2023-04-27T12:53:30.475Z,26.80
2023-04-27T12:56:03.087Z,27.00
2023-04-27T12:58:34.053Z,27.40
2023-04-27T13:01:07.770Z,27.50
2023-04-27T13:03:38.871Z,27.70
2023-04-27T13:06:10.269Z,27.20
2023-04-27T13:08:41.944Z,26.60
2023-04-27T13:11:12.954Z,26.50
2023-04-27T13:13:47.891Z,26.10
2023-04-27T13:16:21.734Z,26.60
2023-04-27T13:18:53.886Z,26.20
2023-04-27T13:21:25.008Z,26.70
2023-04-27T13:23:58.887Z,26.40
2023-04-27T13:26:31.061Z,26.40
2023-04-27T13:29:04.589Z,26.30
2023-04-27T13:31:36.607Z,27.00
2023-04-27T13:34:07.866Z,27.40
2023-04-27T13:36:38.938Z,26.90
2023-04-27T13:39:10.285Z,27.10
2023-04-27T13:41:41.343Z,27.40
2023-04-27T13:44:12.443Z,27.30
2023-04-27T13:46:43.641Z,27.10
2023-04-27T13:49:14.575Z,27.70
2023-04-27T13:51:45.512Z,26.50
2023-04-27T13:54:16.447Z,27.00
2023-04-27T13:56:47.647Z,27.80
2023-04-27T13:59:18.571Z,27.90
2023-04-27T14:01:49.565Z,27.80
2023-04-27T14:04:20.561Z,27.90
2023-04-27T14:06:51.539Z,28.10
2023-04-27T14:09:24.178Z,28.00
2023-04-27T14:11:57.360Z,28.20
2023-04-27T14:14:29.199Z,27.10
2023-04-27T14:17:00.308Z,27.60
2023-04-27T14:19:32.221Z,26.50
2023-04-27T14:22:04.773Z,26.90
2023-04-27T14:24:35.969Z,26.70
2023-04-27T14:27:06.841Z,27.00
2023-04-27T14:29:37.758Z,27.30
2023-04-27T14:32:09.153Z,26.70
2023-04-27T14:34:40.093Z,27.30
2023-04-27T14:37:11.143Z,27.70
2023-04-27T14:39:45.005Z,27.60
2023-04-27T14:42:16.354Z,27.50
2023-04-27T14:44:49.634Z,27.20
2023-04-27T14:47:20.917Z,27.00
2023-04-27T14:49:52.068Z,26.60
2023-04-27T14:52:30.484Z,26.70
2023-04-27T14:55:01.415Z,26.70
2023-04-27T14:57:32.403Z,26.50
2023-04-27T15:00:09.874Z,26.20
2023-04-27T15:02:41.411Z,26.70
2023-04-27T15:05:12.369Z,26.60
2023-04-27T15:07:43.514Z,26.40
2023-04-27T15:10:14.501Z,26.30
2023-04-27T15:12:46.271Z,26.40
2023-04-27T15:15:17.729Z,26.00
2023-04-27T15:17:48.673Z,26.50
2023-04-27T15:20:20.242Z,26.30
2023-04-27T15:22:51.174Z,26.30
2023-04-27T15:25:22.230Z,26.30
2023-04-27T15:27:53.102Z,26.30
2023-04-27T15:30:24.132Z,26.40
2023-04-27T15:32:55.067Z,26.30
2023-04-27T15:35:26.433Z,26.30
2023-04-27T15:37:57.424Z,25.90
2023-04-27T15:40:28.372Z,25.80
2023-04-27T15:42:59.283Z,26.00
2023-04-27T15:45:30.692Z,25.80
2023-04-27T15:48:01.840Z,25.80
2023-04-27T15:50:33.192Z,25.90
2023-04-27T15:53:04.173Z,25.80
2023-04-27T15:55:35.092Z,25.50
2023-04-27T15:58:05.968Z,25.60
2023-04-27T16:00:37.163Z,25.60
2023-04-27T16:03:11.346Z,25.50
2023-04-27T16:05:42.479Z,25.40
2023-04-27T16:08:13.368Z,25.20
2023-04-27T16:10:44.439Z,25.30
2023-04-27T16:13:15.308Z,25.20
2023-04-27T16:15:46.296Z,25.40
2023-04-27T16:18:17.224Z,25.50
2023-04-27T16:20:48.155Z,25.40
2023-04-27T16:23:19.055Z,25.50
2023-04-27T16:25:50.021Z,26.00
2023-04-27T16:28:21.003Z,26.20
2023-04-27T16:30:53.106Z,26.50
2023-04-27T16:33:24.043Z,26.60
2023-04-27T16:35:57.166Z,27.20
2023-04-27T16:38:28.148Z,27.10
2023-04-27T16:40:59.158Z,27.10
2023-04-27T16:43:31.420Z,26.90
2023-04-27T16:46:02.492Z,26.80
2023-04-27T16:48:33.397Z,26.80
2023-04-27T16:51:04.565Z,26.70
2023-04-27T16:53:35.859Z,26.90
2023-04-27T16:56:07.443Z,27.20
2023-04-27T16:58:38.373Z,27.40
2023-04-27T17:01:09.426Z,27.40
2023-04-27T17:03:40.402Z,27.50
2023-04-27T17:06:11.611Z,27.50
2023-04-27T17:08:42.561Z,27.10
2023-04-27T17:11:14.581Z,27.00
2023-04-27T17:13:49.580Z,27.00
2023-04-27T17:16:22.268Z,26.90
2023-04-27T17:18:54.502Z,27.20
2023-04-27T17:21:27.558Z,27.40
2023-04-27T17:23:58.560Z,27.70
2023-04-27T17:26:29.474Z,27.40
2023-04-27T17:29:01.591Z,27.30
2023-04-27T17:31:32.572Z,26.90
2023-04-27T17:34:03.596Z,26.40
2023-04-27T17:36:34.984Z,26.00
2023-04-27T17:39:05.936Z,25.60
2023-04-27T17:41:37.228Z,25.60
2023-04-27T17:44:08.297Z,25.30
2023-04-27T17:46:39.560Z,25.20
2023-04-27T17:49:10.544Z,25.00
2023-04-27T17:51:41.524Z,24.80
2023-04-27T17:54:12.803Z,24.70
2023-04-27T17:56:44.468Z,24.50
2023-04-27T17:59:15.517Z,24.60
2023-04-27T18:01:46.688Z,24.30
2023-04-27T18:04:17.787Z,24.30
2023-04-27T18:06:48.884Z,24.30
2023-04-27T18:09:19.896Z,24.10
2023-04-27T18:11:51.109Z,23.90
2023-04-27T18:14:22.013Z,23.90
2023-04-27T18:16:52.946Z,24.00
2023-04-27T18:19:23.887Z,23.80
2023-04-27T18:21:54.783Z,23.60
2023-04-27T18:24:25.715Z,23.50
2023-04-27T18:26:56.685Z,23.30
2023-04-27T18:29:27.765Z,23.30
2023-04-27T18:32:01.677Z,23.20
2023-04-27T18:34:33.584Z,23.30
2023-04-27T18:37:04.504Z,23.20
2023-04-27T18:39:35.532Z,23.30
2023-04-27T18:42:06.510Z,23.90
2023-04-27T18:44:37.967Z,24.10
2023-04-27T18:47:09.032Z,24.20
2023-04-27T18:49:40.366Z,23.90
2023-04-27T18:52:11.637Z,23.20
2023-04-27T18:54:42.892Z,23.00
2023-04-27T18:57:13.839Z,22.60
2023-04-27T18:59:44.863Z,22.40
2023-04-27T19:02:15.877Z,22.20
2023-04-27T19:04:52.961Z,22.00
2023-04-27T19:07:33.679Z,22.20
2023-04-27T19:10:05.393Z,22.20
2023-04-27T19:12:36.401Z,22.10
2023-04-27T19:15:07.837Z,22.00
2023-04-27T19:17:38.850Z,21.90
2023-04-27T19:20:10.727Z,21.70
2023-04-27T19:22:41.659Z,21.70
2023-04-27T19:25:12.646Z,21.40
2023-04-27T19:27:43.626Z,21.30
2023-04-27T19:30:14.682Z,21.10
2023-04-27T19:32:45.886Z,21.20
2023-04-27T19:35:17.272Z,21.20
2023-04-27T19:37:48.197Z,21.20
2023-04-27T19:40:19.226Z,20.70
2023-04-27T19:42:50.425Z,20.80
2023-04-27T19:45:22.385Z,21.00
2023-04-27T19:47:54.173Z,20.90
2023-04-27T19:50:25.382Z,20.90
2023-04-27T19:52:56.416Z,20.70
2023-04-27T19:55:28.442Z,20.50
2023-04-27T19:57:59.397Z,20.30
2023-04-27T20:00:30.620Z,20.70
2023-04-27T20:03:02.148Z,20.70
2023-04-27T20:05:33.537Z,20.60
2023-04-27T20:08:04.785Z,20.50
2023-04-27T20:10:35.904Z,20.60
2023-04-27T20:13:07.270Z,20.40
2023-04-27T20:15:38.269Z,20.60
2023-04-27T20:18:09.319Z,20.50
2023-04-27T20:20:42.068Z,20.40
2023-04-27T20:23:13.013Z,20.30
2023-04-27T20:25:43.973Z,20.40
2023-04-27T20:28:14.888Z,20.30
2023-04-27T20:30:45.958Z,19.90
2023-04-27T20:33:17.467Z,19.90
2023-04-27T20:35:48.634Z,20.10
2023-04-27T20:38:22.455Z,19.90
2023-04-27T20:40:53.560Z,19.50
2023-04-27T20:43:24.796Z,19.60
2023-04-27T20:45:55.912Z,19.70
2023-04-27T20:48:28.552Z,19.80
2023-04-27T20:50:59.474Z,19.70
2023-04-27T20:53:30.734Z,19.60
2023-04-27T20:56:02.457Z,19.60
2023-04-27T20:58:33.369Z,20.30
2023-04-27T21:01:04.360Z,20.00
2023-04-27T21:03:36.152Z,19.70
2023-04-27T21:06:07.283Z,19.60
2023-04-27T21:08:38.559Z,19.50
2023-04-27T21:11:10.357Z,19.40
2023-04-27T21:13:41.252Z,19.80
2023-04-27T21:16:12.220Z,19.70
2023-04-27T21:18:43.155Z,19.80
2023-04-27T21:21:14.115Z,19.90
2023-04-27T21:23:45.620Z,19.50
2023-04-27T21:26:16.542Z,19.40
2023-04-27T21:28:47.532Z,19.60
2023-04-27T21:31:20.567Z,19.50
2023-04-27T21:33:52.966Z,19.20
2023-04-27T21:36:24.038Z,19.40
2023-04-27T21:38:55.141Z,19.30
2023-04-27T21:41:26.289Z,19.00
2023-04-27T21:43:57.203Z,19.00
2023-04-27T21:46:28.164Z,19.00
2023-04-27T21:48:59.086Z,19.10
2023-04-27T21:51:30.865Z,19.20
2023-04-27T21:54:02.057Z,19.20
2023-04-27T21:56:32.940Z,19.00
2023-04-27T21:59:04.067Z,18.80
2023-04-27T22:01:35.064Z,19.20
2023-04-27T22:04:06.454Z,19.20
2023-04-27T22:06:38.065Z,19.20
2023-04-27T22:09:09.031Z,19.10
2023-04-27T22:11:39.998Z,18.90
2023-04-27T22:14:11.339Z,18.80
2023-04-27T22:16:42.314Z,18.80
2023-04-27T22:19:13.338Z,18.80
2023-04-27T22:21:45.129Z,18.80
2023-04-27T22:24:16.232Z,18.50
2023-04-27T22:26:48.417Z,18.70
2023-04-27T22:29:19.350Z,18.60
2023-04-27T22:34:22.131Z,18.50
2023-04-27T22:36:53.616Z,18.30
2023-04-27T22:39:25.714Z,18.50
2023-04-27T22:41:56.620Z,18.30
2023-04-27T22:44:27.468Z,18.40
2023-04-27T22:47:00.715Z,18.50
2023-04-27T22:49:31.874Z,18.50
2023-04-27T22:52:03.682Z,18.60
2023-04-27T22:54:34.627Z,18.60
2023-04-27T22:57:05.688Z,18.60
2023-04-27T22:59:36.598Z,18.50
2023-04-27T23:02:07.558Z,18.60
2023-04-27T23:04:41.115Z,18.70
2023-04-27T23:07:12.090Z,18.50
2023-04-27T23:09:43.124Z,18.50
2023-04-27T23:12:14.223Z,18.50
2023-04-27T23:14:45.200Z,18.50
2023-04-27T23:17:16.115Z,18.60
2023-04-27T23:19:46.995Z,18.60
2023-04-27T23:22:17.873Z,18.70
2023-04-27T23:24:48.798Z,18.70
2023-04-27T23:27:20.585Z,18.60
2023-04-27T23:29:51.636Z,18.80
2023-04-27T23:32:22.577Z,18.80
2023-04-27T23:34:57.181Z,18.80
2023-04-27T23:37:28.093Z,18.90
2023-04-27T23:39:59.040Z,19.00
2023-04-27T23:42:29.929Z,19.00
2023-04-27T23:45:01.570Z,18.90
2023-04-27T23:47:33.984Z,18.90
2023-04-27T23:50:05.871Z,18.80
2023-04-27T23:52:37.264Z,18.90
2023-04-27T23:55:08.897Z,19.00
2023-04-27T23:57:39.735Z,19.00
